Time;durP1;ratioP1;P1;durP2;ratioP2;P2;SDS_P1;SDS_P2;PMS_P1;PMS_P2;Temp;Humidity;BMP_temperature;BMP_pressure;BME280_temperature;BME280_humidity;BME280_pressure;Samples;Min_cycle;Max_cycle;Signal;HPM_P1;HPM_P2
2023/12/17 00:00:13;;;;;;;;;;;;;;;4.56;70.89;101831.38;4430681;32;34269;-93
2023/12/17 00:02:46;;;;;;;;;;;;;;;4.49;71.11;101828.53;4462620;32;35388;-92
2023/12/17 00:09:08;;;;;;;;;;;;;;;4.34;70.99;101832.06;4459040;32;35464;-94
2023/12/17 00:12:07;;;;;;;;;;;;;;;4.45;70.80;101842.03;4470731;32;34451;-94
2023/12/17 00:14:42;;;;;;;;;;;;;;;4.23;71.61;101840.16;4462536;32;35128;-94
2023/12/17 00:17:11;;;;;;;;;;;;;;;4.31;71.51;101847.34;4475668;32;33508;-94
2023/12/17 00:19:44;;;;;;;;;;;;;;;4.45;70.69;101851.44;4471923;32;35894;-94
2023/12/17 00:30:02;;;;;;;;;;;;;;;4.19;70.99;101838.25;4355335;32;33591;-95
2023/12/17 01:01:39;;;;;;;;;;;;;;;3.85;71.24;101828.06;4218855;33;33480;-93
2023/12/17 01:04:29;;;;;;;;;;;;;;;4.05;71.18;101829.00;4252078;33;34542;-94
2023/12/17 01:11:25;;;;;;;;;;;;;;;3.86;71.33;101850.34;4233303;33;34273;-94
2023/12/17 01:17:43;;;;;;;;;;;;;;;3.77;71.29;101839.63;4265767;33;36262;-94
2023/12/17 01:21:11;;;;;;;;;;;;;;;3.71;71.29;101840.22;4252060;33;34330;-94
2023/12/17 01:23:44;;;;;;;;;;;;;;;3.74;71.40;101853.19;4274909;33;34076;-93
2023/12/17 01:26:48;;;;;;;;;;;;;;;3.56;71.69;101858.31;4304196;33;34555;-94
2023/12/17 01:29:41;;;;;;;;;;;;;;;3.72;71.32;101847.13;4312462;33;35644;-95
2023/12/17 01:36:29;;;;;;;;;;;;;;;3.61;71.54;101820.03;4383555;32;33260;-94
2023/12/17 01:39:28;;;;;;;;;;;;;;;3.61;71.50;101825.19;4388408;32;34363;-94
2023/12/17 01:42:45;;;;;;;;;;;;;;;3.80;71.24;101826.97;4392585;32;34216;-94
2023/12/17 01:45:46;;;;;;;;;;;;;;;3.71;71.64;101832.50;4396351;32;34350;-93
2023/12/17 01:48:48;;;;;;;;;;;;;;;3.58;71.75;101840.44;4386901;32;33647;-94
2023/12/17 01:51:17;;;;;;;;;;;;;;;3.64;72.24;101846.72;4382637;32;33639;-93
2023/12/17 01:53:47;;;;;;;;;;;;;;;3.64;72.88;101844.16;4386343;32;35224;-93
2023/12/17 01:56:20;;;;;;;;;;;;;;;3.79;72.84;101845.72;4392332;32;34142;-93
2023/12/17 01:58:49;;;;;;;;;;;;;;;3.68;72.66;101837.50;4394382;32;33098;-93
2023/12/17 02:01:22;;;;;;;;;;;;;;;3.68;72.86;101836.63;4373523;32;34378;-93
2023/12/17 02:03:52;;;;;;;;;;;;;;;3.66;72.86;101840.81;4383900;32;34952;-93
2023/12/17 02:06:22;;;;;;;;;;;;;;;3.73;72.65;101846.31;4385048;32;34133;-93
2023/12/17 02:08:51;;;;;;;;;;;;;;;3.78;72.20;101844.84;4384325;32;32659;-92
2023/12/17 02:11:27;;;;;;;;;;;;;;;3.85;72.15;101844.34;4382868;32;33719;-92
2023/12/17 02:13:56;;;;;;;;;;;;;;;3.82;72.41;101833.94;4396122;32;33360;-92
2023/12/17 02:16:31;;;;;;;;;;;;;;;3.74;72.67;101837.78;4392599;32;35722;-93
2023/12/17 02:19:11;;;;;;;;;;;;;;;3.79;72.74;101846.63;4390457;32;32800;-94
2023/12/17 02:21:41;;;;;;;;;;;;;;;3.72;72.80;101847.13;4382868;32;36060;-94
2023/12/17 02:24:19;;;;;;;;;;;;;;;3.79;72.41;101831.22;4390470;32;33819;-93
2023/12/17 02:26:52;;;;;;;;;;;;;;;3.87;71.88;101835.81;4394974;32;33837;-93
2023/12/17 02:29:21;;;;;;;;;;;;;;;3.90;71.55;101834.28;4387095;32;32897;-92
2023/12/17 02:31:52;;;;;;;;;;;;;;;3.76;72.07;101831.06;4384577;32;33586;-93
2023/12/17 02:34:21;;;;;;;;;;;;;;;3.75;72.17;101833.56;4370233;32;34353;-93
2023/12/17 02:36:53;;;;;;;;;;;;;;;3.71;71.66;101832.50;4382886;32;35211;-92
2023/12/17 02:39:23;;;;;;;;;;;;;;;3.67;72.46;101834.84;4386172;32;33468;-93
2023/12/17 02:41:55;;;;;;;;;;;;;;;3.76;71.78;101831.06;4395315;32;34691;-93
2023/12/17 02:44:24;;;;;;;;;;;;;;;3.58;71.94;101819.91;4376105;32;33370;-93
2023/12/17 02:46:56;;;;;;;;;;;;;;;3.60;71.79;101820.81;4391434;32;33528;-94
2023/12/17 02:49:26;;;;;;;;;;;;;;;3.88;71.55;101806.78;4388641;32;32538;-92
2023/12/17 02:51:58;;;;;;;;;;;;;;;3.82;72.03;101799.69;4388436;32;34953;-92
2023/12/17 02:54:28;;;;;;;;;;;;;;;3.59;73.09;101798.56;4385710;32;33789;-93
2023/12/17 02:56:59;;;;;;;;;;;;;;;3.77;72.52;101809.72;4394117;32;32143;-93
2023/12/17 02:59:28;;;;;;;;;;;;;;;3.47;73.69;101801.38;4392614;32;33283;-93
2023/12/17 03:01:59;;;;;;;;;;;;;;;3.68;73.16;101793.00;4390449;32;33843;-92
2023/12/17 03:04:28;;;;;;;;;;;;;;;3.78;72.39;101790.94;4390040;32;34253;-93
2023/12/17 03:06:57;;;;;;;;;;;;;;;3.80;72.00;101789.31;4384718;32;34728;-92
2023/12/17 03:09:30;;;;;;;;;;;;;;;3.97;72.06;101774.72;4386185;32;34129;-92
2023/12/17 03:12:05;;;;;;;;;;;;;;;3.68;73.04;101775.91;4383661;32;35229;-93
2023/12/17 03:14:33;;;;;;;;;;;;;;;3.83;72.69;101781.75;4388437;32;34039;-94
2023/12/17 03:17:05;;;;;;;;;;;;;;;3.64;72.78;101779.13;4389026;32;33646;-92
2023/12/17 03:19:34;;;;;;;;;;;;;;;3.45;73.72;101779.91;4389196;32;33326;-94
2023/12/17 03:22:05;;;;;;;;;;;;;;;3.41;73.25;101790.84;4373657;32;34338;-93
2023/12/17 03:24:39;;;;;;;;;;;;;;;3.50;73.55;101796.41;4371486;32;34248;-93
2023/12/17 03:27:11;;;;;;;;;;;;;;;3.68;72.73;101799.00;4389331;32;33958;-93
2023/12/17 03:29:40;;;;;;;;;;;;;;;3.70;72.47;101799.09;4390348;32;34224;-93
2023/12/17 03:32:11;;;;;;;;;;;;;;;3.76;72.46;101796.81;4398652;32;34930;-93
2023/12/17 03:34:40;;;;;;;;;;;;;;;3.46;73.27;101791.94;4399856;32;33508;-93
2023/12/17 03:37:09;;;;;;;;;;;;;;;3.47;74.67;101800.53;4400610;32;34153;-93
2023/12/17 03:39:43;;;;;;;;;;;;;;;3.88;73.12;101787.13;4391738;32;34226;-93
2023/12/17 03:42:20;;;;;;;;;;;;;;;3.74;73.93;101786.44;4386565;32;35077;-93
2023/12/17 03:44:57;;;;;;;;;;;;;;;3.71;73.50;101782.87;4386166;32;34143;-93
2023/12/17 03:47:27;;;;;;;;;;;;;;;3.66;73.65;101787.78;4386897;32;35054;-93
2023/12/17 03:50:01;;;;;;;;;;;;;;;3.73;73.32;101786.41;4386970;32;34235;-93
2023/12/17 03:52:40;;;;;;;;;;;;;;;3.76;72.84;101789.09;4391467;32;34861;-93
2023/12/17 03:55:11;;;;;;;;;;;;;;;3.74;72.43;101775.31;4399218;32;33495;-92
2023/12/17 03:57:41;;;;;;;;;;;;;;;3.58;72.66;101768.56;4400279;32;34457;-92
2023/12/17 04:00:16;;;;;;;;;;;;;;;3.51;72.63;101769.09;4399914;32;36833;-92
2023/12/17 04:02:48;;;;;;;;;;;;;;;3.54;72.78;101771.78;4402150;32;33601;-91
2023/12/17 04:05:18;;;;;;;;;;;;;;;3.73;71.89;101764.16;4404180;32;34253;-92
2023/12/17 04:07:54;;;;;;;;;;;;;;;3.56;72.65;101770.19;4400606;32;33787;-92
2023/12/17 04:10:29;;;;;;;;;;;;;;;3.70;71.68;101769.16;4401558;32;32803;-92
2023/12/17 04:12:58;;;;;;;;;;;;;;;3.74;71.21;101767.59;4399235;32;34333;-91
2023/12/17 04:15:27;;;;;;;;;;;;;;;3.56;71.97;101768.50;4404061;32;33708;-92
2023/12/17 04:17:56;;;;;;;;;;;;;;;3.17;72.70;101765.72;4399268;32;33384;-91
2023/12/17 04:20:25;;;;;;;;;;;;;;;2.85;74.08;101769.22;4401995;32;33617;-91
2023/12/17 04:22:54;;;;;;;;;;;;;;;3.16;73.15;101763.06;4399206;32;34553;-92
2023/12/17 04:25:25;;;;;;;;;;;;;;;3.28;72.61;101748.28;4399258;32;33748;-91
2023/12/17 04:27:57;;;;;;;;;;;;;;;3.29;72.20;101747.50;4403761;32;34353;-92
2023/12/17 04:30:30;;;;;;;;;;;;;;;3.39;72.20;101754.84;4400563;32;34555;-91
2023/12/17 04:32:59;;;;;;;;;;;;;;;3.39;71.98;101753.97;4399401;32;33939;-92
2023/12/17 04:35:28;;;;;;;;;;;;;;;3.45;71.26;101758.50;4384956;32;35067;-92
2023/12/17 04:37:59;;;;;;;;;;;;;;;3.64;70.34;101751.75;4388778;32;33456;-90
2023/12/17 04:40:28;;;;;;;;;;;;;;;3.45;71.11;101759.37;4384447;32;32753;-92
2023/12/17 04:43:01;;;;;;;;;;;;;;;3.40;71.31;101765.97;4384286;32;32846;-92
2023/12/17 04:45:30;;;;;;;;;;;;;;;3.49;71.25;101765.56;4384349;32;33647;-90
2023/12/17 04:48:01;;;;;;;;;;;;;;;3.32;71.81;101764.72;4386036;32;33268;-91
2023/12/17 04:50:32;;;;;;;;;;;;;;;3.24;71.79;101760.88;4388806;32;33259;-91
2023/12/17 04:53:08;;;;;;;;;;;;;;;3.37;71.37;101761.56;4410456;32;33314;-91
2023/12/17 04:55:42;;;;;;;;;;;;;;;3.23;71.94;101762.56;4402347;32;33811;-91
2023/12/17 04:58:26;;;;;;;;;;;;;;;3.16;72.75;101760.50;4421624;32;33505;-91
2023/12/17 05:01:02;;;;;;;;;;;;;;;3.27;72.18;101761.94;4425275;32;32209;-92
2023/12/17 05:03:31;;;;;;;;;;;;;;;3.40;72.00;101764.28;4423761;32;33022;-91
2023/12/17 05:06:02;;;;;;;;;;;;;;;3.46;71.84;101773.13;4416821;32;34576;-91
2023/12/17 05:08:31;;;;;;;;;;;;;;;3.51;71.64;101777.66;4419521;32;34241;-92
2023/12/17 05:11:03;;;;;;;;;;;;;;;3.41;71.78;101773.75;4417042;32;32371;-91
2023/12/17 05:13:31;;;;;;;;;;;;;;;3.14;72.35;101785.19;4417769;32;33743;-91
2023/12/17 05:16:02;;;;;;;;;;;;;;;3.16;72.12;101773.31;4421668;32;33473;-92
2023/12/17 05:18:32;;;;;;;;;;;;;;;3.07;72.57;101781.44;4428879;32;33639;-91
2023/12/17 05:21:01;;;;;;;;;;;;;;;3.25;72.43;101778.91;4417550;32;33507;-91
2023/12/17 05:23:33;;;;;;;;;;;;;;;3.25;72.41;101778.91;4416774;32;34281;-91
2023/12/17 05:26:02;;;;;;;;;;;;;;;3.44;71.07;101774.72;4421626;32;33901;-91
2023/12/17 05:28:37;;;;;;;;;;;;;;;3.35;71.57;101773.44;4417049;32;33693;-91
2023/12/17 05:31:12;;;;;;;;;;;;;;;3.40;71.26;101769.41;4416893;32;33073;-91
2023/12/17 05:33:43;;;;;;;;;;;;;;;3.27;71.87;101774.75;4417129;32;33627;-92
2023/12/17 05:36:18;;;;;;;;;;;;;;;3.10;72.78;101775.59;4417799;32;34597;-91
2023/12/17 05:38:47;;;;;;;;;;;;;;;3.20;72.30;101767.56;4421539;32;34201;-90
2023/12/17 05:41:19;;;;;;;;;;;;;;;3.15;71.96;101781.84;4418474;32;33305;-91
2023/12/17 05:43:54;;;;;;;;;;;;;;;3.28;71.58;101783.31;4416933;32;33150;-92
2023/12/17 05:46:22;;;;;;;;;;;;;;;2.98;72.42;101789.53;4417070;32;33910;-90
2023/12/17 05:49:00;;;;;;;;;;;;;;;3.28;71.72;101789.31;4421568;32;34196;-91
2023/12/17 05:51:28;;;;;;;;;;;;;;;3.09;72.73;101800.34;4432911;32;31990;-91
2023/12/17 05:53:58;;;;;;;;;;;;;;;2.98;72.55;101797.25;4417392;32;34478;-90
2023/12/17 05:56:29;;;;;;;;;;;;;;;3.03;73.25;101796.59;4431842;32;34995;-90
2023/12/17 05:58:58;;;;;;;;;;;;;;;3.09;72.90;101791.78;4436999;32;34055;-92
2023/12/17 06:01:27;;;;;;;;;;;;;;;2.99;72.53;101787.84;4452110;32;33067;-91
2023/12/17 06:04:00;;;;;;;;;;;;;;;3.00;73.29;101784.50;4449537;32;35117;-90
2023/12/17 06:06:28;;;;;;;;;;;;;;;3.06;72.67;101787.38;4431581;32;33937;-91
2023/12/17 06:09:00;;;;;;;;;;;;;;;3.20;71.67;101796.66;4439647;32;34114;-90
2023/12/17 06:11:29;;;;;;;;;;;;;;;2.86;73.04;101793.16;4447318;32;32754;-90
2023/12/17 06:14:00;;;;;;;;;;;;;;;3.04;72.59;101783.84;4451807;32;33730;-90
2023/12/17 06:16:31;;;;;;;;;;;;;;;3.13;72.39;101768.91;4447273;32;34085;-91
2023/12/17 06:19:01;;;;;;;;;;;;;;;3.04;72.50;101765.00;4447118;32;34204;-91
2023/12/17 06:21:31;;;;;;;;;;;;;;;3.08;72.36;101761.81;4446962;32;31949;-90
2023/12/17 06:24:02;;;;;;;;;;;;;;;2.89;72.54;101758.31;4451644;32;34477;-90
2023/12/17 06:26:35;;;;;;;;;;;;;;;2.81;72.96;101761.28;4447065;32;33435;-90
2023/12/17 06:29:04;;;;;;;;;;;;;;;2.91;72.58;101758.41;4449654;32;34719;-91
2023/12/17 06:31:33;;;;;;;;;;;;;;;3.10;71.74;101760.22;4441588;32;32542;-90
2023/12/17 06:34:09;;;;;;;;;;;;;;;3.06;72.03;101748.03;4431536;32;34498;-91
2023/12/17 06:36:38;;;;;;;;;;;;;;;3.66;71.15;101738.13;4436023;32;33926;-91
2023/12/17 06:39:10;;;;;;;;;;;;;;;3.52;71.74;101737.47;4435131;32;34375;-90
2023/12/17 06:41:43;;;;;;;;;;;;;;;3.58;71.96;101733.50;4431831;32;32801;-90
2023/12/17 06:44:19;;;;;;;;;;;;;;;3.61;72.11;101745.63;4431415;32;34621;-92
2023/12/17 06:46:49;;;;;;;;;;;;;;;3.40;73.22;101748.87;4435637;32;34057;-90
2023/12/17 06:49:36;;;;;;;;;;;;;;;3.40;73.32;101750.56;4440714;32;33739;-91
2023/12/17 06:52:07;;;;;;;;;;;;;;;3.48;73.23;101750.94;4431890;32;33934;-91
2023/12/17 06:54:36;;;;;;;;;;;;;;;3.37;73.69;101741.03;4424198;32;35042;-91
2023/12/17 06:57:07;;;;;;;;;;;;;;;3.31;73.68;101738.19;4423058;32;34449;-91
2023/12/17 06:59:39;;;;;;;;;;;;;;;3.36;74.04;101733.28;4443320;32;34819;-91
2023/12/17 07:02:09;;;;;;;;;;;;;;;3.17;74.73;101736.62;4428083;32;33706;-91
2023/12/17 07:04:39;;;;;;;;;;;;;;;3.13;75.28;101745.84;4438329;32;32716;-91
2023/12/17 07:07:09;;;;;;;;;;;;;;;3.48;73.73;101738.13;4438953;32;33531;-90
2023/12/17 07:09:42;;;;;;;;;;;;;;;3.49;73.60;101737.31;4432670;32;34404;-90
2023/12/17 07:12:11;;;;;;;;;;;;;;;3.37;74.06;101733.34;4441892;32;33757;-89
2023/12/17 07:14:44;;;;;;;;;;;;;;;3.47;73.54;101741.50;4437162;32;33943;-92
2023/12/17 07:17:13;;;;;;;;;;;;;;;3.48;73.75;101730.41;4423310;32;34318;-91
2023/12/17 07:19:45;;;;;;;;;;;;;;;3.67;73.16;101732.19;4438692;32;33364;-90
2023/12/17 07:22:16;;;;;;;;;;;;;;;3.78;72.34;101733.59;4436270;32;33461;-91
2023/12/17 07:24:46;;;;;;;;;;;;;;;3.70;72.98;101724.66;4441474;32;34213;-91
2023/12/17 07:27:15;;;;;;;;;;;;;;;3.80;72.08;101722.56;4438654;32;34624;-91
2023/12/17 07:29:45;;;;;;;;;;;;;;;3.64;73.06;101718.41;4442800;32;34128;-92
2023/12/17 07:32:15;;;;;;;;;;;;;;;3.92;72.12;101729.09;4440199;32;32896;-90
2023/12/17 07:34:45;;;;;;;;;;;;;;;4.14;71.21;101730.97;4443376;32;33673;-90
2023/12/17 07:37:20;;;;;;;;;;;;;;;4.20;71.10;101739.81;4438811;32;34970;-91
2023/12/17 07:39:50;;;;;;;;;;;;;;;4.37;70.11;101730.28;4427270;32;35111;-94
2023/12/17 07:42:23;;;;;;;;;;;;;;;4.22;70.79;101729.63;4430624;32;33593;-92
2023/12/17 07:45:10;;;;;;;;;;;;;;;4.64;69.17;101728.09;4420245;32;33537;-92
2023/12/17 07:48:07;;;;;;;;;;;;;;;4.54;69.79;101732.75;4429209;32;34328;-91
2023/12/17 07:51:04;;;;;;;;;;;;;;;4.64;69.75;101737.47;4429543;32;34924;-90
2023/12/17 08:00:27;;;;;;;;;;;;;;;5.07;68.04;101742.78;4411170;32;34431;-93
2023/12/17 08:03:23;;;;;;;;;;;;;;;5.13;68.01;101740.47;4409330;32;35968;-90
2023/12/17 08:06:21;;;;;;;;;;;;;;;5.14;68.42;101741.31;4417950;32;34526;-91
2023/12/17 08:15:14;;;;;;;;;;;;;;;5.55;65.63;101753.31;4430915;32;35210;-93
2023/12/17 08:17:52;;;;;;;;;;;;;;;5.45;66.01;101761.50;4421735;32;33238;-92
2023/12/17 08:20:31;;;;;;;;;;;;;;;5.32;66.45;101766.97;4432921;32;35612;-89
2023/12/17 09:56:20;;;;;;;;;;;;;;;7.06;59.76;101738.34;4747081;27;19982;-93
2023/12/17 09:58:49;;;;;;;;;;;;;;;7.04;58.98;101740.84;4349312;32;32587;-96
2023/12/17 10:01:22;;;;;;;;;;;;;;;7.11;59.27;101741.06;4357718;32;34392;-93
2023/12/17 10:03:53;;;;;;;;;;;;;;;7.33;58.54;101742.66;4345414;32;33776;-93
2023/12/17 10:06:24;;;;;;;;;;;;;;;6.93;59.55;101733.56;4356416;32;33344;-93
2023/12/17 10:08:58;;;;;;;;;;;;;;;7.26;58.54;101734.69;4361065;32;31709;-92
2023/12/17 10:11:28;;;;;;;;;;;;;;;7.31;58.30;101732.28;4367151;32;34750;-92
2023/12/17 10:14:00;;;;;;;;;;;;;;;7.17;58.56;101736.09;4362922;32;33615;-94
2023/12/17 10:16:29;;;;;;;;;;;;;;;7.15;58.65;101728.31;4358038;32;34291;-94
2023/12/17 10:19:04;;;;;;;;;;;;;;;7.26;58.53;101705.44;4366850;32;34324;-95
2023/12/17 10:21:33;;;;;;;;;;;;;;;7.27;58.46;101707.16;4355859;32;34365;-91
2023/12/17 10:24:03;;;;;;;;;;;;;;;7.30;58.22;101706.38;4355670;32;34108;-92
2023/12/17 10:26:33;;;;;;;;;;;;;;;7.39;57.88;101711.84;4355455;32;33254;-92
2023/12/17 10:29:05;;;;;;;;;;;;;;;7.49;57.42;101711.34;4369804;32;33676;-92
2023/12/17 10:31:33;;;;;;;;;;;;;;;7.40;57.59;101709.34;4374566;32;34153;-94
2023/12/17 10:34:08;;;;;;;;;;;;;;;7.60;57.72;101707.38;4370601;32;33671;-93
2023/12/17 10:36:37;;;;;;;;;;;;;;;7.46;57.30;101695.72;4367685;32;33335;-93
2023/12/17 10:39:06;;;;;;;;;;;;;;;7.40;56.83;101696.44;4365371;32;32761;-95
2023/12/17 10:41:36;;;;;;;;;;;;;;;7.41;57.64;101694.72;4346748;32;32941;-93
2023/12/17 10:44:09;;;;;;;;;;;;;;;7.61;57.39;101692.75;4374686;32;35755;-92
2023/12/17 10:46:38;;;;;;;;;;;;;;;7.68;56.09;101689.53;4364936;32;33220;-95
2023/12/17 10:49:08;;;;;;;;;;;;;;;7.79;55.37;101692.47;4366436;32;32935;-93
2023/12/17 10:51:39;;;;;;;;;;;;;;;7.64;55.93;101677.37;4349084;32;33130;-94
2023/12/17 10:54:08;;;;;;;;;;;;;;;7.78;55.77;101677.75;4357454;32;33375;-93
2023/12/17 10:56:42;;;;;;;;;;;;;;;7.84;55.78;101678.84;4351843;32;33636;-93
2023/12/17 10:59:15;;;;;;;;;;;;;;;7.96;55.34;101678.31;4343177;32;33664;-94
2023/12/17 11:02:02;;;;;;;;;;;;;;;7.97;55.25;101674.91;4343407;32;34059;-94
2023/12/17 11:04:30;;;;;;;;;;;;;;;7.79;55.58;101677.81;4350911;32;33706;-94
2023/12/17 11:07:03;;;;;;;;;;;;;;;8.01;54.60;101686.22;4348241;32;34624;-92
2023/12/17 11:09:39;;;;;;;;;;;;;;;7.94;53.59;101677.41;4356941;32;32847;-95
2023/12/17 11:12:09;;;;;;;;;;;;;;;7.84;54.44;101673.66;4344110;32;34866;-92
2023/12/17 11:14:44;;;;;;;;;;;;;;;8.17;53.07;101664.28;4341362;33;33853;-93
2023/12/17 11:17:12;;;;;;;;;;;;;;;8.11;53.08;101672.72;4346942;32;33847;-92
2023/12/17 11:19:52;;;;;;;;;;;;;;;7.90;53.43;101663.53;4347057;32;32455;-93
2023/12/17 11:22:24;;;;;;;;;;;;;;;7.99;53.75;101668.06;4356388;32;34897;-92
2023/12/17 11:24:54;;;;;;;;;;;;;;;8.15;53.58;101656.47;4356426;32;34286;-95
2023/12/17 11:27:26;;;;;;;;;;;;;;;8.02;54.12;101660.44;4359791;32;33609;-92
2023/12/17 11:29:56;;;;;;;;;;;;;;;8.19;53.74;101660.00;4358354;32;33367;-94
2023/12/17 11:32:28;;;;;;;;;;;;;;;8.16;53.87;101653.03;4359055;32;33803;-94
2023/12/17 11:34:57;;;;;;;;;;;;;;;8.28;53.53;101653.38;4357655;32;33611;-92
2023/12/17 11:37:29;;;;;;;;;;;;;;;8.26;53.42;101655.06;4356921;32;34347;-92
2023/12/17 11:39:58;;;;;;;;;;;;;;;8.34;53.20;101653.56;4358111;32;33627;-94
2023/12/17 11:42:28;;;;;;;;;;;;;;;8.34;53.02;101657.88;4360548;32;34406;-94
2023/12/17 11:44:57;;;;;;;;;;;;;;;8.47;53.00;101653.94;4355709;32;33472;-93
2023/12/17 11:47:28;;;;;;;;;;;;;;;8.49;52.53;101652.25;4355542;32;34940;-93
2023/12/17 11:50:00;;;;;;;;;;;;;;;8.40;52.70;101652.88;4344360;32;33484;-92
2023/12/17 11:52:31;;;;;;;;;;;;;;;8.52;52.30;101660.97;4344891;32;33979;-92
2023/12/17 11:55:01;;;;;;;;;;;;;;;8.57;52.07;101662.81;4361363;32;34376;-94
2023/12/17 11:57:34;;;;;;;;;;;;;;;8.59;52.49;101655.97;4357164;32;33602;-93
2023/12/17 12:00:06;;;;;;;;;;;;;;;8.37;52.75;101657.06;4357710;32;32837;-93
2023/12/17 12:02:38;;;;;;;;;;;;;;;8.67;52.21;101654.44;4356867;32;33665;-96
2023/12/17 12:05:07;;;;;;;;;;;;;;;8.60;51.88;101657.72;4351007;32;33495;-95
2023/12/17 12:07:36;;;;;;;;;;;;;;;8.48;52.29;101645.31;4333262;33;33434;-92
2023/12/17 12:10:05;;;;;;;;;;;;;;;8.53;52.45;101633.41;4357350;32;33572;-92
2023/12/17 12:12:40;;;;;;;;;;;;;;;8.67;52.20;101625.97;4356850;32;33224;-92
2023/12/17 12:15:09;;;;;;;;;;;;;;;8.76;51.88;101629.69;4357188;32;34613;-92
2023/12/17 12:17:41;;;;;;;;;;;;;;;8.73;51.78;101628.75;4361739;32;33988;-93
2023/12/17 12:20:12;;;;;;;;;;;;;;;8.72;52.50;101630.47;4347035;32;32259;-91
2023/12/17 12:22:43;;;;;;;;;;;;;;;8.62;52.84;101632.75;4357711;32;33352;-93
2023/12/17 12:25:27;;;;;;;;;;;;;;;8.63;52.33;101634.53;4357203;32;34955;-94
2023/12/17 12:27:57;;;;;;;;;;;;;;;8.46;53.12;101634.09;4358702;32;33938;-92
2023/12/17 12:30:32;;;;;;;;;;;;;;;8.67;52.73;101629.44;4361239;32;33118;-92
2023/12/17 12:33:08;;;;;;;;;;;;;;;8.68;52.79;101630.34;4356277;32;34380;-90
2023/12/17 12:35:38;;;;;;;;;;;;;;;8.75;52.29;101630.53;4346091;32;33582;-92
2023/12/17 12:38:19;;;;;;;;;;;;;;;8.80;52.44;101637.53;4346464;32;35346;-89
2023/12/17 12:40:48;;;;;;;;;;;;;;;8.67;52.79;101631.16;4342182;32;34146;-91
2023/12/17 12:43:18;;;;;;;;;;;;;;;8.73;52.01;101639.09;4360715;32;33825;-89
2023/12/17 12:45:49;;;;;;;;;;;;;;;8.75;52.46;101648.66;4336504;32;33612;-90
2023/12/17 12:48:23;;;;;;;;;;;;;;;8.86;52.58;101656.66;4347875;32;33796;-91
2023/12/17 12:50:54;;;;;;;;;;;;;;;9.03;51.56;101657.09;4336581;32;31583;-91
2023/12/17 12:53:23;;;;;;;;;;;;;;;8.95;51.78;101658.62;4346621;32;35035;-91
2023/12/17 12:55:56;;;;;;;;;;;;;;;8.98;51.99;101656.97;4354093;32;33763;-91
2023/12/17 12:58:26;;;;;;;;;;;;;;;8.89;52.24;101651.59;4348728;32;34163;-91
2023/12/17 13:01:05;;;;;;;;;;;;;;;8.97;52.21;101647.47;4342021;32;32973;-93
2023/12/17 13:03:36;;;;;;;;;;;;;;;9.12;51.93;101652.16;4335918;32;33206;-90
2023/12/17 13:06:08;;;;;;;;;;;;;;;9.03;52.39;101643.28;4338173;33;33574;-91
2023/12/17 13:08:41;;;;;;;;;;;;;;;9.27;51.74;101645.56;4353688;32;33834;-90
2023/12/17 13:11:09;;;;;;;;;;;;;;;9.53;51.27;101639.28;4348389;32;33128;-90
2023/12/17 13:13:42;;;;;;;;;;;;;;;9.27;51.87;101638.69;4352755;32;34132;-91
2023/12/17 13:16:10;;;;;;;;;;;;;;;9.36;51.89;101633.72;4341149;32;34480;-92
2023/12/17 13:18:39;;;;;;;;;;;;;;;9.57;51.14;101640.25;4355514;32;33432;-90
2023/12/17 13:21:11;;;;;;;;;;;;;;;9.24;51.58;101625.66;4354004;32;33076;-91
2023/12/17 13:23:39;;;;;;;;;;;;;;;9.30;51.29;101627.50;4333796;33;32883;-90
2023/12/17 13:26:11;;;;;;;;;;;;;;;9.54;50.91;101620.31;4341162;33;34253;-90
2023/12/17 13:28:57;;;;;;;;;;;;;;;9.52;51.10;101621.09;4354645;32;34200;-90
2023/12/17 13:31:30;;;;;;;;;;;;;;;9.31;52.25;101627.56;4359748;32;32960;-89
2023/12/17 13:33:59;;;;;;;;;;;;;;;9.35;51.80;101626.81;4355745;32;33834;-90
2023/12/17 13:36:30;;;;;;;;;;;;;;;9.44;51.61;101630.44;4356346;32;33538;-92
2023/12/17 13:39:00;;;;;;;;;;;;;;;9.52;51.43;101627.19;4346088;32;33660;-91
2023/12/17 13:41:31;;;;;;;;;;;;;;;9.48;51.39;101625.34;4346410;32;31152;-91
2023/12/17 13:44:14;;;;;;;;;;;;;;;9.51;51.37;101622.81;4352182;32;34047;-90
2023/12/17 13:46:42;;;;;;;;;;;;;;;9.65;51.46;101630.91;4354750;32;34562;-91
2023/12/17 13:49:12;;;;;;;;;;;;;;;9.49;51.60;101621.91;4353483;32;33596;-90
2023/12/17 13:51:41;;;;;;;;;;;;;;;9.53;51.76;101615.09;4345938;32;32229;-89
2023/12/17 13:54:12;;;;;;;;;;;;;;;9.65;52.00;101623.13;4359922;32;34888;-89
2023/12/17 13:56:41;;;;;;;;;;;;;;;9.80;51.21;101619.97;4355149;32;34120;-91
2023/12/17 13:59:17;;;;;;;;;;;;;;;9.71;51.80;101623.28;4344129;32;32327;-90
2023/12/17 14:01:47;;;;;;;;;;;;;;;9.75;51.60;101625.06;4339111;32;33003;-91
2023/12/17 14:04:19;;;;;;;;;;;;;;;9.90;51.36;101623.63;4351953;32;33958;-90
2023/12/17 14:06:48;;;;;;;;;;;;;;;9.94;50.67;101628.06;4349362;32;35030;-90
2023/12/17 14:09:22;;;;;;;;;;;;;;;10.07;49.82;101634.34;4353240;32;34465;-90
2023/12/17 14:11:50;;;;;;;;;;;;;;;9.84;50.67;101632.19;4356067;32;33132;-92
2023/12/17 14:14:19;;;;;;;;;;;;;;;9.91;50.59;101628.00;4333048;33;33174;-91
2023/12/17 14:16:50;;;;;;;;;;;;;;;9.82;50.51;101620.91;4332040;33;33821;-93
2023/12/17 14:19:25;;;;;;;;;;;;;;;9.76;50.88;101621.66;4355179;32;34428;-90
2023/12/17 14:21:54;;;;;;;;;;;;;;;9.59;51.76;101613.50;4342051;32;31728;-92
2023/12/17 14:24:22;;;;;;;;;;;;;;;9.53;51.53;101597.81;4355208;32;33726;-92
2023/12/17 14:26:51;;;;;;;;;;;;;;;9.79;50.80;101600.09;4350059;32;34138;-90
2023/12/17 14:29:24;;;;;;;;;;;;;;;9.64;51.21;101603.25;4342209;33;32260;-90
2023/12/17 14:31:59;;;;;;;;;;;;;;;9.71;51.29;101605.12;4342701;32;33606;-90
2023/12/17 14:34:37;;;;;;;;;;;;;;;9.64;51.48;101599.75;4358369;32;34492;-90
2023/12/17 14:37:08;;;;;;;;;;;;;;;9.59;51.62;101591.88;4351662;32;33976;-89
2023/12/17 14:39:37;;;;;;;;;;;;;;;9.44;51.94;101586.37;4358403;32;33668;-91
2023/12/17 14:42:05;;;;;;;;;;;;;;;9.57;51.37;101588.41;4356762;32;32927;-90
2023/12/17 14:44:38;;;;;;;;;;;;;;;9.54;51.48;101581.44;4341037;32;34199;-90
2023/12/17 14:47:13;;;;;;;;;;;;;;;9.34;52.15;101593.94;4341163;33;33996;-90
2023/12/17 14:49:41;;;;;;;;;;;;;;;9.34;52.68;101593.94;4343487;33;33563;-91
2023/12/17 14:52:10;;;;;;;;;;;;;;;9.08;53.18;101592.47;4332067;33;32316;-90
2023/12/17 14:54:41;;;;;;;;;;;;;;;9.18;53.02;101590.16;4344192;32;34394;-89
2023/12/17 14:57:10;;;;;;;;;;;;;;;9.20;52.96;101587.56;4339860;32;32683;-89
2023/12/17 14:59:41;;;;;;;;;;;;;;;9.24;52.97;101588.53;4350935;32;33053;-90
2023/12/17 15:02:16;;;;;;;;;;;;;;;9.27;52.62;101586.88;4350508;32;32967;-89
2023/12/17 15:04:45;;;;;;;;;;;;;;;9.21;53.01;101591.06;4354742;32;34111;-88
2023/12/17 15:07:18;;;;;;;;;;;;;;;9.13;53.22;101588.28;4351979;32;33607;-89
2023/12/17 15:09:47;;;;;;;;;;;;;;;8.91;54.10;101602.44;4349818;32;33878;-89
2023/12/17 15:12:15;;;;;;;;;;;;;;;8.83;54.31;101591.91;4348206;32;33623;-89
2023/12/17 15:14:47;;;;;;;;;;;;;;;8.73;55.06;101585.63;4355305;32;34853;-90
2023/12/17 15:17:24;;;;;;;;;;;;;;;8.72;54.80;101578.72;4354990;32;34575;-90
2023/12/17 15:19:53;;;;;;;;;;;;;;;8.76;54.86;101582.22;4350378;32;34028;-89
2023/12/17 15:22:22;;;;;;;;;;;;;;;8.78;54.79;101590.03;4350685;32;33264;-89
2023/12/17 15:24:50;;;;;;;;;;;;;;;8.72;55.06;101586.47;4345313;32;33471;-90
2023/12/17 15:27:23;;;;;;;;;;;;;;;8.70;55.08;101582.97;4355078;32;34082;-90
2023/12/17 15:29:51;;;;;;;;;;;;;;;8.64;55.31;101594.88;4353803;32;33594;-91
2023/12/17 15:32:25;;;;;;;;;;;;;;;8.60;55.51;101585.25;4350478;32;33390;-90
2023/12/17 15:34:54;;;;;;;;;;;;;;;8.63;55.40;101580.19;4335766;32;33981;-90
2023/12/17 15:37:22;;;;;;;;;;;;;;;8.42;55.83;101581.38;4351938;32;34587;-90
2023/12/17 15:39:51;;;;;;;;;;;;;;;8.21;56.70;101578.19;4354141;32;33986;-91
2023/12/17 15:42:20;;;;;;;;;;;;;;;8.26;56.57;101576.59;4350978;32;32319;-91
2023/12/17 15:44:52;;;;;;;;;;;;;;;8.17;56.89;101581.56;4348395;32;34488;-90
2023/12/17 15:47:23;;;;;;;;;;;;;;;8.15;57.08;101583.22;4354142;32;34311;-89
2023/12/17 15:49:55;;;;;;;;;;;;;;;8.42;56.21;101573.63;4357230;32;34002;-90
2023/12/17 15:52:24;;;;;;;;;;;;;;;8.21;56.85;101584.22;4356408;32;33478;-91
2023/12/17 15:54:58;;;;;;;;;;;;;;;8.33;56.22;101594.03;4347945;32;34150;-90